ADDS METAR Data INFO
IDs: Format: Raw Decoded Include TAF

Data at: 0214 UTC 14 Dec 2017

KBUR 140153Z VRB03KT 10SM CLR 20/M05 A2995 RMK AO2 SLP133 T02001050 $
KBUR 140053Z 16003KT 10SM CLR 22/M09 A2994 RMK AO2 SLP129 T02221089 $
KBUR 132353Z 15005KT 10SM CLR 25/M08 A2993 RMK AO2 SLP126 T02501083 10283 20222 55006 $
KBUR 132253Z 18007KT 10SM CLR 27/M08 A2993 RMK AO2 SLP124 T02671078 $
KBUR 132153Z 15007KT 10SM CLR 28/M08 A2993 RMK AO2 SLP124 T02781083 $
KBUR 132053Z 19003KT 10SM CLR 27/M13 A2995 RMK AO2 SLP131 T02721128 58030 $
KBUR 131953Z 00000KT 10SM CLR 26/M14 A2998 RMK AO2 SLP142 T02611144 $
KBUR 131853Z 00000KT 10SM CLR 24/M14 A3002 RMK AO2 SLP153 T02441144 $
KBUR 131753Z 00000KT 10SM CLR 22/M14 A3004 RMK AO2 SLP162 T02221139 10222 20089 51008 $
KBUR 131653Z 00000KT 10SM CLR 18/M10 A3004 RMK AO2 SLP163 T01781100 $
KBUR 131553Z 01004KT 10SM CLR 12/M08 A3003 RMK AO2 SLP160 T01221083 $
KBUR 131453Z 00000KT 10SM CLR 10/M09 A3001 RMK AO2 SLP156 T01001089 53002 $
KBUR 131353Z 00000KT 10SM CLR 09/M09 A3001 RMK AO2 SLP154 T00891089 $
KBUR 131253Z 00000KT 10SM CLR 09/M09 A3001 RMK AO2 SLP153 T00941089 $
KBUR 131153Z 00000KT 10SM CLR 09/M08 A3001 RMK AO2 SLP153 T00891083 10139 20089 58006 $
KBUR 131053Z 00000KT 10SM CLR 09/M08 A3002 RMK AO2 SLP156 T00941078 $
KBUR 130953Z 36006KT 10SM CLR 11/M09 A3003 RMK AO2 SLP157 T01111094 $
KBUR 130853Z 34004KT 10SM CLR 11/M08 A3003 RMK AO2 SLP158 T01061083 58007 $
KBUR 130753Z 30003KT 10SM CLR 11/M08 A3004 RMK AO2 SLP163 T01111083 402830067 $
KBUR 130653Z 00000KT 10SM CLR 12/M07 A3005 RMK AO2 SLP166 T01171067 $
KBUR 130553Z 00000KT 10SM CLR 14/M06 A3005 RMK AO2 SLP166 T01391061 10256 20128 58001 $
KBUR 130453Z 00000KT 10SM CLR 14/M06 A3005 RMK AO2 SLP167 T01441056 $
KBUR 130353Z 07003KT 10SM CLR 16/M07 A3005 RMK AO2 SLP170 T01561072 $
KBUR 130253Z 31004KT 10SM CLR 19/M08 A3005 RMK AO2 SLP169 T01891078 51006 $
KBUR 130153Z 36003KT 10SM CLR 19/M06 A3005 RMK AO2 SLP168 T01941061 $
KBUR 130053Z 12005KT 10SM CLR 23/M08 A3004 RMK AO2 SLP163 T02281083 $
KBUR 122353Z 16005KT 10SM CLR 26/M09 A3004 RMK AO2 SLP161 T02561094 10283 20194 56017 $
KBUR 122253Z VRB04KT 10SM CLR 28/M16 A3004 RMK AO2 SLP161 T02831161 $
KBUR 122153Z VRB03KT 10SM CLR 28/M16 A3006 RMK AO2 SLP168 T02781161 $
KBUR 122053Z 00000KT 10SM CLR 27/M16 A3009 RMK AO2 SLP178 T02671156 58041 $
KBUR 121953Z 00000KT 10SM CLR 26/M13 A3014 RMK AO2 SLP195 T02561133 $
KBUR 121853Z 00000KT 10SM CLR 23/M15 A3018 RMK AO2 SLP209 T02281150 $
KBUR 121753Z 00000KT 10SM CLR 19/M14 A3021 RMK AO2 SLP221 T01941139 10194 20067 50004 $
KBUR 121653Z 00000KT 9SM CLR 16/M11 A3021 RMK AO2 SLP222 T01611111 $
KBUR 121553Z 00000KT 10SM CLR 11/M11 A3020 RMK AO2 SLP221 T01111111
KBUR 121453Z 00000KT 10SM CLR 07/M09 A3020 RMK AO2 SLP219 T00671094 53001